createdAt,value
2024-01-26T00:00:47.511Z,247.90
2024-01-26T00:01:47.469Z,240.80
2024-01-26T00:02:47.388Z,237.90
2024-01-26T00:03:47.574Z,238.30
2024-01-26T00:04:47.440Z,241.60
2024-01-26T00:05:47.376Z,241.30
2024-01-26T00:06:47.499Z,243.00
2024-01-26T00:07:47.371Z,239.80
2024-01-26T00:08:47.325Z,242.50
2024-01-26T00:09:47.962Z,240.20
2024-01-26T00:10:47.342Z,244.20
2024-01-26T00:11:47.312Z,245.60
2024-01-26T00:12:47.340Z,241.50
2024-01-26T00:13:47.312Z,243.70
2024-01-26T00:14:47.253Z,240.30
2024-01-26T00:15:47.330Z,244.00
2024-01-26T00:16:47.267Z,244.60
2024-01-26T00:17:47.275Z,248.20
2024-01-26T00:18:47.245Z,250.10
2024-01-26T00:19:47.279Z,251.70
2024-01-26T00:20:47.220Z,253.40
2024-01-26T00:21:47.213Z,253.80
2024-01-26T00:22:47.185Z,256.50
2024-01-26T00:23:47.174Z,252.60
2024-01-26T00:24:47.238Z,249.40
2024-01-26T00:25:47.160Z,249.60
2024-01-26T00:26:47.142Z,247.10
2024-01-26T00:27:47.130Z,251.80
2024-01-26T00:28:47.119Z,246.90
2024-01-26T00:29:47.161Z,249.90
2024-01-26T00:30:47.170Z,248.40
2024-01-26T00:31:47.112Z,250.50
2024-01-26T00:32:47.139Z,250.50
2024-01-26T00:33:47.231Z,254.30
2024-01-26T00:34:47.144Z,254.60
2024-01-26T00:35:47.035Z,250.90
2024-01-26T00:36:47.087Z,249.00
2024-01-26T00:37:47.017Z,247.00
2024-01-26T00:38:47.057Z,253.90
2024-01-26T00:39:47.019Z,255.10
2024-01-26T00:40:46.985Z,261.90
2024-01-26T00:41:46.976Z,259.70
2024-01-26T00:42:47.009Z,260.40
2024-01-26T00:43:46.980Z,260.90
2024-01-26T00:44:46.962Z,259.10
2024-01-26T00:45:46.977Z,257.50
2024-01-26T00:46:46.943Z,253.90
2024-01-26T00:47:46.976Z,256.20
2024-01-26T00:48:46.978Z,256.20
2024-01-26T00:49:52.331Z,257.50
2024-01-26T00:50:46.883Z,253.90
2024-01-26T00:51:46.887Z,251.80
2024-01-26T00:52:46.895Z,252.60
2024-01-26T00:53:46.846Z,249.70
2024-01-26T00:54:46.890Z,251.30
2024-01-26T00:55:46.905Z,250.20
2024-01-26T00:56:46.822Z,256.40
2024-01-26T00:57:46.850Z,254.50
2024-01-26T00:58:46.811Z,256.00
2024-01-26T00:59:46.820Z,250.50
2024-01-26T01:00:46.782Z,252.60
2024-01-26T01:01:46.853Z,249.60
2024-01-26T01:02:46.959Z,246.50
2024-01-26T01:03:46.755Z,249.30
2024-01-26T01:04:46.738Z,249.20
2024-01-26T01:05:46.808Z,251.10
2024-01-26T01:06:46.732Z,253.50
2024-01-26T01:07:46.699Z,253.10
2024-01-26T01:08:46.724Z,252.50
2024-01-26T01:09:46.707Z,248.60
2024-01-26T01:10:46.667Z,249.60
2024-01-26T01:11:46.727Z,242.10
2024-01-26T01:12:46.780Z,247.50
2024-01-26T01:13:46.629Z,247.70
2024-01-26T01:14:46.628Z,252.20
2024-01-26T01:15:46.628Z,250.90
2024-01-26T01:16:46.638Z,250.30
2024-01-26T01:17:46.689Z,253.70
2024-01-26T01:18:46.691Z,251.10
2024-01-26T01:19:46.629Z,256.70
2024-01-26T01:20:46.673Z,255.60
2024-01-26T01:21:46.571Z,251.70
2024-01-26T01:22:46.555Z,253.20
2024-01-26T01:23:46.530Z,251.70
2024-01-26T01:24:46.515Z,249.10
2024-01-26T01:25:46.522Z,253.10
2024-01-26T01:26:46.512Z,257.20
2024-01-26T01:27:46.482Z,252.80
2024-01-26T01:28:46.477Z,257.60
2024-01-26T01:29:46.531Z,256.50
2024-01-26T01:30:46.512Z,256.00
2024-01-26T01:31:46.453Z,255.50
2024-01-26T01:32:46.656Z,256.80
2024-01-26T01:33:46.666Z,250.20
2024-01-26T01:34:46.473Z,249.60
2024-01-26T01:35:46.457Z,249.20
2024-01-26T01:36:46.402Z,247.60
2024-01-26T01:37:46.378Z,253.70
2024-01-26T01:38:46.455Z,251.30
2024-01-26T01:39:46.378Z,253.10
2024-01-26T01:40:46.505Z,249.50
2024-01-26T01:41:46.351Z,246.50
2024-01-26T01:42:46.338Z,248.30
2024-01-26T01:43:46.343Z,248.10
2024-01-26T01:44:46.349Z,252.20
2024-01-26T01:45:46.304Z,251.70
2024-01-26T01:46:46.291Z,257.10
2024-01-26T01:47:46.321Z,253.00
2024-01-26T01:48:46.408Z,251.80
2024-01-26T01:49:46.286Z,248.50
2024-01-26T01:50:46.280Z,251.90
2024-01-26T01:51:46.247Z,252.40
2024-01-26T01:52:46.253Z,251.40
2024-01-26T01:53:46.274Z,252.90
2024-01-26T01:54:46.220Z,249.70
2024-01-26T01:55:46.277Z,251.10
2024-01-26T01:56:46.345Z,257.20
2024-01-26T01:57:46.318Z,254.60
2024-01-26T01:58:46.202Z,256.00
2024-01-26T01:59:46.162Z,257.00
2024-01-26T02:00:46.237Z,260.40
2024-01-26T02:01:46.181Z,259.30
2024-01-26T02:02:46.171Z,258.70
2024-01-26T02:03:46.130Z,254.50
2024-01-26T02:04:46.180Z,254.80
2024-01-26T02:05:46.221Z,253.40
2024-01-26T02:06:46.108Z,255.60
2024-01-26T02:07:46.094Z,256.50
2024-01-26T02:08:46.097Z,258.80
2024-01-26T02:09:46.082Z,264.70
2024-01-26T02:10:46.055Z,262.50
2024-01-26T02:11:46.034Z,262.80
2024-01-26T02:12:46.074Z,261.30
2024-01-26T02:13:46.013Z,261.90
2024-01-26T02:14:45.999Z,262.90
2024-01-26T02:15:45.996Z,261.50
2024-01-26T02:16:45.985Z,260.60
2024-01-26T02:17:46.027Z,261.20
2024-01-26T02:18:46.040Z,261.10
2024-01-26T02:19:45.964Z,263.60
2024-01-26T02:20:52.313Z,266.60
2024-01-26T02:21:45.933Z,265.20
2024-01-26T02:22:45.935Z,259.50
2024-01-26T02:23:45.910Z,257.90
2024-01-26T02:24:45.877Z,254.40
2024-01-26T02:25:45.863Z,258.20
2024-01-26T02:26:45.890Z,261.30
2024-01-26T02:27:45.898Z,263.80
2024-01-26T02:28:45.847Z,263.30
2024-01-26T02:29:45.855Z,257.30
2024-01-26T02:30:45.862Z,260.90
2024-01-26T02:31:45.829Z,256.90
2024-01-26T02:32:45.948Z,256.00
2024-01-26T02:33:45.857Z,260.10
2024-01-26T02:34:45.920Z,261.30
2024-01-26T02:35:45.816Z,262.70
2024-01-26T02:36:45.776Z,259.40
2024-01-26T02:37:45.755Z,259.50
2024-01-26T02:38:45.792Z,259.50
2024-01-26T02:39:45.739Z,260.00
2024-01-26T02:40:45.745Z,260.80
2024-01-26T02:41:45.716Z,259.80
2024-01-26T02:42:45.687Z,262.80
2024-01-26T02:43:45.686Z,263.90
2024-01-26T02:44:45.767Z,260.90
2024-01-26T02:45:45.679Z,260.30
2024-01-26T02:46:45.638Z,258.90
2024-01-26T02:47:45.724Z,262.40
2024-01-26T02:48:45.838Z,259.70
2024-01-26T02:49:45.732Z,260.20
2024-01-26T02:50:45.698Z,259.00
2024-01-26T02:51:45.584Z,258.90
2024-01-26T02:52:45.597Z,259.70
2024-01-26T02:53:45.607Z,254.40
2024-01-26T02:54:45.595Z,254.30
2024-01-26T02:55:45.551Z,250.00
2024-01-26T02:56:45.556Z,253.80
2024-01-26T02:57:45.556Z,252.50
2024-01-26T02:58:45.505Z,256.70
2024-01-26T02:59:46.063Z,255.70
2024-01-26T03:00:45.517Z,254.40
2024-01-26T03:01:45.483Z,255.20
2024-01-26T03:02:45.558Z,252.10
2024-01-26T03:03:45.490Z,254.30
2024-01-26T03:04:45.486Z,251.80
2024-01-26T03:05:45.455Z,249.60
2024-01-26T03:06:45.546Z,250.60
2024-01-26T03:07:45.424Z,252.10
2024-01-26T03:08:45.467Z,254.40
2024-01-26T03:09:45.430Z,252.80
2024-01-26T03:10:45.401Z,252.80
2024-01-26T03:11:45.436Z,252.80
2024-01-26T03:12:45.377Z,249.50
2024-01-26T03:13:45.387Z,249.30
2024-01-26T03:14:45.382Z,243.60
2024-01-26T03:15:45.326Z,248.60
2024-01-26T03:16:45.328Z,247.70
2024-01-26T03:17:45.457Z,248.70
2024-01-26T03:18:45.461Z,248.20
2024-01-26T03:19:45.322Z,244.90
2024-01-26T03:20:45.400Z,247.20
2024-01-26T03:21:45.292Z,248.40
2024-01-26T03:22:45.269Z,253.40
2024-01-26T03:23:45.289Z,249.20
2024-01-26T03:24:45.304Z,246.30
2024-01-26T03:25:45.214Z,250.00
2024-01-26T03:26:45.221Z,245.40
2024-01-26T03:27:45.226Z,252.00
2024-01-26T03:28:45.182Z,253.20
2024-01-26T03:29:45.222Z,255.10
2024-01-26T03:30:48.503Z,255.30
2024-01-26T03:31:45.216Z,249.40
2024-01-26T03:32:45.268Z,246.90
2024-01-26T03:33:45.411Z,243.60
2024-01-26T03:34:45.153Z,238.00
2024-01-26T03:35:45.121Z,243.30
2024-01-26T03:36:45.133Z,238.60
2024-01-26T03:37:45.091Z,238.10
2024-01-26T03:38:45.104Z,236.00
2024-01-26T03:39:45.085Z,241.00
2024-01-26T03:40:45.100Z,245.30
2024-01-26T03:41:45.182Z,239.70
2024-01-26T03:42:45.052Z,244.20
2024-01-26T03:43:45.036Z,240.30
2024-01-26T03:44:45.066Z,244.40
2024-01-26T03:45:45.054Z,244.90
2024-01-26T03:46:45.015Z,245.40
2024-01-26T03:47:45.043Z,242.90
2024-01-26T03:48:45.196Z,237.60
2024-01-26T03:49:44.989Z,237.10
2024-01-26T03:50:45.038Z,235.80
2024-01-26T03:51:44.976Z,231.30
2024-01-26T03:52:44.940Z,232.70
2024-01-26T03:53:45.076Z,231.00
2024-01-26T03:54:44.931Z,235.40
2024-01-26T03:55:44.915Z,236.70
2024-01-26T03:56:45.000Z,237.00
2024-01-26T03:57:44.927Z,229.50
2024-01-26T03:58:44.868Z,221.00
2024-01-26T03:59:44.952Z,222.40
2024-01-26T04:00:44.868Z,218.10
2024-01-26T04:01:44.849Z,225.60
2024-01-26T04:02:44.870Z,221.40
2024-01-26T04:03:44.849Z,219.10
2024-01-26T04:04:44.827Z,218.20
2024-01-26T04:05:44.995Z,218.10
2024-01-26T04:06:44.795Z,217.90
2024-01-26T04:07:44.777Z,213.30
2024-01-26T04:08:44.836Z,209.50
2024-01-26T04:09:44.794Z,211.80
2024-01-26T04:10:44.773Z,209.40
2024-01-26T04:11:44.802Z,211.90
2024-01-26T04:12:44.731Z,205.60
2024-01-26T04:13:44.708Z,211.00
2024-01-26T04:14:44.773Z,206.80
2024-01-26T04:15:44.684Z,210.10
2024-01-26T04:16:44.673Z,214.10
2024-01-26T04:17:44.766Z,212.10
2024-01-26T04:18:44.770Z,211.80
2024-01-26T04:19:44.654Z,205.30
2024-01-26T04:20:44.676Z,202.40
2024-01-26T04:21:44.607Z,202.90
2024-01-26T04:22:44.670Z,203.70
2024-01-26T04:23:44.671Z,201.90
2024-01-26T04:24:44.590Z,204.50
2024-01-26T04:25:44.644Z,203.50
2024-01-26T04:26:44.658Z,205.20
2024-01-26T04:27:44.600Z,216.60
2024-01-26T04:28:44.553Z,215.50
2024-01-26T04:29:44.643Z,211.50
2024-01-26T04:30:44.682Z,211.40
2024-01-26T04:31:44.535Z,204.50
2024-01-26T04:32:44.655Z,207.80
2024-01-26T04:33:44.658Z,205.60
2024-01-26T04:34:44.648Z,206.40
2024-01-26T04:35:44.530Z,208.40
2024-01-26T04:36:44.474Z,211.80
2024-01-26T04:37:44.475Z,211.60
2024-01-26T04:38:44.551Z,208.50
2024-01-26T04:39:44.424Z,212.80
2024-01-26T04:40:44.435Z,211.80
2024-01-26T04:41:44.652Z,215.10
2024-01-26T04:42:44.403Z,212.40
2024-01-26T04:43:44.402Z,210.70
2024-01-26T04:44:44.423Z,212.80
2024-01-26T04:45:44.419Z,208.80
2024-01-26T04:46:44.382Z,204.80
2024-01-26T04:47:44.437Z,211.50
2024-01-26T04:48:44.451Z,210.10
2024-01-26T04:49:44.399Z,211.60
2024-01-26T04:50:44.357Z,208.30
2024-01-26T04:51:44.313Z,207.30
2024-01-26T04:52:44.757Z,207.70
2024-01-26T04:53:44.333Z,210.00
2024-01-26T04:54:44.278Z,211.50
2024-01-26T04:55:44.291Z,210.00
2024-01-26T04:56:44.279Z,212.20
2024-01-26T04:57:44.239Z,212.00
2024-01-26T04:58:44.252Z,214.00
2024-01-26T04:59:44.300Z,220.70
2024-01-26T05:00:44.283Z,221.50
2024-01-26T05:01:44.180Z,220.80
2024-01-26T05:02:44.254Z,214.40
2024-01-26T05:03:44.242Z,214.10
2024-01-26T05:04:44.190Z,213.20
2024-01-26T05:05:44.250Z,203.90
2024-01-26T05:06:44.302Z,204.40
2024-01-26T05:07:44.130Z,203.00
2024-01-26T05:08:44.230Z,207.50
2024-01-26T05:09:46.814Z,208.00
2024-01-26T05:10:44.092Z,199.20
2024-01-26T05:11:44.138Z,198.80
2024-01-26T05:12:44.100Z,198.70
2024-01-26T05:13:44.095Z,202.50
2024-01-26T05:14:44.113Z,202.60
2024-01-26T05:15:44.032Z,209.50
2024-01-26T05:16:44.077Z,218.30
2024-01-26T05:17:44.080Z,216.10
2024-01-26T05:18:44.070Z,212.50
2024-01-26T05:19:44.032Z,208.60
2024-01-26T05:20:44.038Z,199.80
2024-01-26T05:21:43.996Z,198.80
2024-01-26T05:22:44.004Z,193.90
2024-01-26T05:23:44.012Z,186.30
2024-01-26T05:24:43.951Z,189.90
2024-01-26T05:25:43.942Z,181.40
2024-01-26T05:26:43.977Z,188.50
2024-01-26T05:27:43.937Z,183.40
2024-01-26T05:28:43.921Z,187.50
2024-01-26T05:29:43.981Z,184.30
2024-01-26T05:30:43.867Z,176.10
2024-01-26T05:31:43.930Z,183.90
2024-01-26T05:32:43.989Z,185.40
2024-01-26T05:33:44.019Z,187.10
2024-01-26T05:34:43.926Z,181.80
2024-01-26T05:35:43.890Z,181.20
2024-01-26T05:36:43.883Z,187.70
2024-01-26T05:37:43.813Z,178.40
2024-01-26T05:38:43.870Z,177.70
2024-01-26T05:39:43.784Z,178.80
2024-01-26T05:40:43.781Z,173.60
2024-01-26T05:41:43.866Z,188.20
2024-01-26T05:42:43.774Z,182.10
2024-01-26T05:43:43.748Z,184.60
2024-01-26T05:44:43.814Z,178.50
2024-01-26T05:45:43.722Z,174.20
2024-01-26T05:46:43.727Z,179.60
2024-01-26T05:47:43.801Z,170.70
2024-01-26T05:48:43.780Z,175.90
2024-01-26T05:49:43.882Z,174.70
2024-01-26T05:50:43.699Z,176.80
2024-01-26T05:51:43.670Z,182.60
2024-01-26T05:52:43.667Z,187.70
2024-01-26T05:53:43.647Z,191.20
2024-01-26T05:54:43.638Z,188.30
2024-01-26T05:55:43.629Z,185.30
2024-01-26T05:56:43.677Z,182.80
2024-01-26T05:57:43.582Z,180.60
2024-01-26T05:58:43.592Z,181.80
2024-01-26T05:59:43.653Z,175.80
2024-01-26T06:00:43.649Z,174.40
2024-01-26T06:01:43.580Z,170.10
2024-01-26T06:02:43.555Z,168.50
2024-01-26T06:03:43.582Z,168.50
2024-01-26T06:04:43.544Z,166.00
2024-01-26T06:05:43.651Z,174.10
2024-01-26T06:06:43.606Z,171.10
2024-01-26T06:07:43.480Z,173.60
2024-01-26T06:08:45.276Z,171.80
2024-01-26T06:09:43.466Z,166.20
2024-01-26T06:10:43.524Z,166.30
2024-01-26T06:11:43.533Z,165.10
2024-01-26T06:12:43.459Z,166.70
2024-01-26T06:13:43.414Z,165.20
2024-01-26T06:14:43.456Z,164.00
2024-01-26T06:15:43.469Z,160.60
2024-01-26T06:16:43.389Z,162.00
2024-01-26T06:17:43.426Z,165.90
2024-01-26T06:18:43.481Z,167.00
2024-01-26T06:19:43.409Z,166.50
2024-01-26T06:20:43.472Z,163.70
2024-01-26T06:21:43.411Z,159.30
2024-01-26T06:22:43.358Z,159.80
2024-01-26T06:23:43.318Z,159.40
2024-01-26T06:24:43.342Z,165.80
2024-01-26T06:25:43.292Z,164.70
2024-01-26T06:26:43.294Z,163.00
2024-01-26T06:27:43.293Z,157.00
2024-01-26T06:28:43.284Z,153.80
2024-01-26T06:29:43.288Z,154.20
2024-01-26T06:30:43.313Z,152.10
2024-01-26T06:31:43.266Z,150.50
2024-01-26T06:32:43.346Z,153.20
2024-01-26T06:33:43.330Z,149.50
2024-01-26T06:34:43.509Z,155.70
2024-01-26T06:35:43.239Z,159.40
2024-01-26T06:36:43.182Z,160.00
2024-01-26T06:37:43.175Z,154.30
2024-01-26T06:38:43.223Z,151.90
2024-01-26T06:39:43.139Z,155.10
2024-01-26T06:40:43.146Z,152.10
2024-01-26T06:41:43.226Z,152.90
2024-01-26T06:42:43.128Z,154.30
2024-01-26T06:43:43.117Z,148.40
2024-01-26T06:44:43.112Z,148.40
2024-01-26T06:45:43.088Z,141.80
2024-01-26T06:46:43.058Z,142.60
2024-01-26T06:47:43.170Z,139.50
2024-01-26T06:48:43.152Z,135.30
2024-01-26T06:49:43.098Z,133.90
2024-01-26T06:50:43.075Z,132.30
2024-01-26T06:51:43.004Z,134.50
2024-01-26T06:52:43.036Z,141.50
2024-01-26T06:53:42.984Z,146.00
2024-01-26T06:54:43.030Z,142.50
2024-01-26T06:55:42.976Z,138.20
2024-01-26T06:56:43.003Z,134.30
2024-01-26T06:57:42.996Z,132.70
2024-01-26T06:58:42.935Z,137.40
2024-01-26T06:59:42.962Z,134.50
2024-01-26T07:00:44.590Z,135.00
2024-01-26T07:01:42.936Z,133.60
2024-01-26T07:02:42.962Z,131.30
2024-01-26T07:03:42.947Z,130.20
2024-01-26T07:04:42.882Z,129.50
2024-01-26T07:05:42.861Z,132.40
2024-01-26T07:06:43.044Z,133.10
2024-01-26T07:07:42.860Z,129.60
2024-01-26T07:08:45.031Z,127.00
2024-01-26T07:09:42.801Z,123.10
2024-01-26T07:10:42.826Z,123.00
2024-01-26T07:11:42.822Z,127.60
2024-01-26T07:12:42.853Z,128.00
2024-01-26T07:13:42.767Z,127.90
2024-01-26T07:14:42.798Z,126.40
2024-01-26T07:15:42.762Z,124.40
2024-01-26T07:16:42.726Z,128.60
2024-01-26T07:17:42.776Z,127.50
2024-01-26T07:18:42.874Z,129.90
2024-01-26T07:19:42.703Z,129.50
2024-01-26T07:20:42.783Z,131.50
2024-01-26T07:21:42.678Z,133.20
2024-01-26T07:22:42.648Z,133.40
2024-01-26T07:23:42.688Z,128.10
2024-01-26T07:24:42.665Z,121.60
2024-01-26T07:25:42.686Z,123.60
2024-01-26T07:26:42.678Z,124.80
2024-01-26T07:27:42.605Z,126.50
2024-01-26T07:28:42.582Z,126.70
2024-01-26T07:29:42.638Z,127.00
2024-01-26T07:30:42.580Z,127.60
2024-01-26T07:31:42.638Z,122.30
2024-01-26T07:32:42.697Z,122.90
2024-01-26T07:33:42.766Z,126.90
2024-01-26T07:34:42.690Z,132.40
2024-01-26T07:35:42.621Z,132.50
2024-01-26T07:36:42.552Z,132.80
2024-01-26T07:37:42.585Z,132.40
2024-01-26T07:38:42.591Z,136.80
2024-01-26T07:39:42.605Z,134.60
2024-01-26T07:40:42.469Z,132.90
2024-01-26T07:41:42.512Z,140.20
2024-01-26T07:42:42.450Z,145.80
2024-01-26T07:43:42.479Z,146.90
2024-01-26T07:44:42.436Z,150.30
2024-01-26T07:45:42.453Z,148.00
2024-01-26T07:46:42.610Z,150.60
2024-01-26T07:47:42.452Z,152.20
2024-01-26T07:48:42.543Z,155.90
2024-01-26T07:49:42.612Z,159.30
2024-01-26T07:50:42.435Z,157.80
2024-01-26T07:51:42.351Z,157.30
2024-01-26T07:52:42.346Z,156.40
2024-01-26T07:53:42.402Z,158.60
2024-01-26T07:54:42.318Z,157.10
2024-01-26T07:55:42.314Z,150.90
2024-01-26T07:56:42.371Z,158.80
2024-01-26T07:57:42.314Z,156.70
2024-01-26T07:58:42.305Z,155.10
2024-01-26T07:59:42.304Z,162.50
2024-01-26T08:00:42.303Z,165.20
2024-01-26T08:01:42.251Z,172.00
2024-01-26T08:02:42.261Z,170.80
2024-01-26T08:03:42.385Z,170.40
2024-01-26T08:04:42.250Z,173.70
2024-01-26T08:05:42.281Z,170.90
2024-01-26T08:06:42.535Z,171.30
2024-01-26T08:07:42.195Z,168.90
2024-01-26T08:08:42.180Z,171.30
2024-01-26T08:09:42.143Z,180.70
2024-01-26T08:10:42.148Z,180.10
2024-01-26T08:11:42.233Z,185.10
2024-01-26T08:12:45.442Z,176.90
2024-01-26T08:13:42.217Z,181.20
2024-01-26T08:14:42.217Z,183.50
2024-01-26T08:15:42.263Z,185.00
2024-01-26T08:16:42.214Z,185.20
2024-01-26T08:17:42.225Z,183.20
2024-01-26T08:18:42.189Z,189.00
2024-01-26T08:19:42.179Z,184.30
2024-01-26T08:20:42.119Z,184.50
2024-01-26T08:21:42.098Z,191.00
2024-01-26T08:22:42.083Z,184.70
2024-01-26T08:23:48.513Z,186.70
2024-01-26T08:24:42.001Z,188.60
2024-01-26T08:25:42.019Z,185.70
2024-01-26T08:26:42.083Z,197.60
2024-01-26T08:27:42.088Z,191.90
2024-01-26T08:28:41.979Z,191.90
2024-01-26T08:29:42.007Z,193.30
2024-01-26T08:30:41.970Z,193.00
2024-01-26T08:31:41.943Z,198.20
2024-01-26T08:32:42.109Z,200.90
2024-01-26T08:33:42.290Z,206.20
2024-01-26T08:34:42.140Z,205.30
2024-01-26T08:35:42.161Z,201.60
2024-01-26T08:36:41.969Z,199.90
2024-01-26T08:37:41.881Z,202.60
2024-01-26T08:38:41.914Z,204.90
2024-01-26T08:39:41.891Z,201.30
2024-01-26T08:40:41.851Z,206.00
2024-01-26T08:41:41.923Z,205.40
2024-01-26T08:42:41.839Z,209.90
2024-01-26T08:43:41.856Z,214.00
2024-01-26T08:44:41.894Z,209.70
2024-01-26T08:45:41.824Z,211.30
2024-01-26T08:46:41.844Z,214.30
2024-01-26T08:47:41.836Z,212.70
2024-01-26T08:48:41.946Z,215.70
2024-01-26T08:49:41.790Z,210.40
2024-01-26T08:50:41.796Z,214.50
2024-01-26T08:51:41.758Z,218.40
2024-01-26T08:52:41.768Z,220.50
2024-01-26T08:53:41.870Z,226.70
2024-01-26T08:54:41.727Z,227.20
2024-01-26T08:55:41.728Z,223.60
2024-01-26T08:56:41.706Z,226.00
2024-01-26T08:57:41.694Z,226.30
2024-01-26T08:58:41.702Z,223.30
2024-01-26T08:59:41.795Z,222.10
2024-01-26T09:00:41.692Z,226.30
2024-01-26T09:01:41.626Z,221.80
2024-01-26T09:02:41.660Z,218.20
2024-01-26T09:03:41.660Z,222.60
2024-01-26T09:04:41.616Z,212.10
2024-01-26T09:05:41.679Z,222.80
2024-01-26T09:06:42.442Z,231.10
2024-01-26T09:07:41.605Z,235.00
2024-01-26T09:08:41.574Z,227.30
2024-01-26T09:09:41.551Z,232.70
2024-01-26T09:10:41.541Z,241.00
2024-01-26T09:11:41.587Z,241.70
2024-01-26T09:12:41.537Z,234.60
2024-01-26T09:13:41.536Z,235.90
2024-01-26T09:14:41.489Z,235.90
2024-01-26T09:15:41.483Z,228.80
2024-01-26T09:16:41.489Z,236.30
2024-01-26T09:17:41.589Z,226.20
2024-01-26T09:18:44.065Z,230.70
2024-01-26T09:19:41.570Z,233.10
2024-01-26T09:20:41.621Z,228.40
2024-01-26T09:21:41.495Z,235.00
2024-01-26T09:22:41.414Z,231.10
2024-01-26T09:23:41.433Z,239.50
2024-01-26T09:24:41.406Z,239.00
2024-01-26T09:25:41.405Z,240.80
2024-01-26T09:26:41.397Z,238.00
2024-01-26T09:27:41.361Z,237.50
2024-01-26T09:28:41.330Z,237.50
2024-01-26T09:29:41.379Z,238.90
2024-01-26T09:30:41.352Z,238.70
2024-01-26T09:31:41.326Z,242.30
2024-01-26T09:32:41.416Z,235.10
2024-01-26T09:33:41.379Z,238.40
2024-01-26T09:34:41.476Z,238.80
2024-01-26T09:35:41.326Z,242.30
2024-01-26T09:36:41.257Z,243.90
2024-01-26T09:37:41.271Z,242.90
2024-01-26T09:38:41.277Z,240.90
2024-01-26T09:39:41.213Z,244.00
2024-01-26T09:40:41.256Z,239.00
2024-01-26T09:41:41.291Z,246.30
2024-01-26T09:42:41.201Z,239.10
2024-01-26T09:43:41.171Z,246.60
2024-01-26T09:44:41.336Z,254.90
2024-01-26T09:45:41.242Z,247.70
2024-01-26T09:46:41.129Z,247.30
2024-01-26T09:47:41.169Z,244.50
2024-01-26T09:48:41.272Z,245.70
2024-01-26T09:49:41.122Z,247.30
2024-01-26T09:50:42.507Z,240.10
2024-01-26T09:51:41.198Z,240.20
2024-01-26T09:52:41.089Z,239.40
2024-01-26T09:53:41.074Z,240.40
2024-01-26T09:54:41.077Z,245.80
2024-01-26T09:55:41.041Z,235.20
2024-01-26T09:56:41.060Z,235.70
2024-01-26T09:57:41.065Z,236.20
2024-01-26T09:58:41.050Z,235.70
2024-01-26T09:59:41.208Z,240.80
2024-01-26T10:00:41.003Z,229.10
2024-01-26T10:01:40.969Z,238.70
2024-01-26T10:02:40.994Z,236.70
2024-01-26T10:03:41.089Z,232.40
2024-01-26T10:04:41.022Z,237.00
2024-01-26T10:05:41.088Z,241.80
2024-01-26T10:06:40.929Z,234.30
2024-01-26T10:07:40.913Z,233.40
2024-01-26T10:08:40.968Z,236.70
2024-01-26T10:09:40.878Z,238.70
2024-01-26T10:10:40.873Z,243.10
2024-01-26T10:11:40.933Z,238.70
2024-01-26T10:12:40.877Z,245.90
2024-01-26T10:13:40.868Z,239.70
2024-01-26T10:14:40.973Z,237.20
2024-01-26T10:15:40.878Z,237.30
2024-01-26T10:16:40.815Z,239.50
2024-01-26T10:17:40.914Z,240.80
2024-01-26T10:18:41.055Z,243.30
2024-01-26T10:19:40.843Z,244.80
2024-01-26T10:20:40.816Z,242.70
2024-01-26T10:21:42.527Z,243.40
2024-01-26T10:22:40.788Z,243.80
2024-01-26T10:23:40.776Z,248.00
2024-01-26T10:24:40.711Z,246.50
2024-01-26T10:25:40.743Z,247.60
2024-01-26T10:26:40.748Z,250.90
2024-01-26T10:27:40.733Z,245.70
2024-01-26T10:28:40.703Z,250.30
2024-01-26T10:29:40.739Z,250.80
2024-01-26T10:30:40.647Z,246.10
2024-01-26T10:31:40.718Z,246.00
2024-01-26T10:32:40.742Z,245.50
2024-01-26T10:33:40.723Z,240.70
2024-01-26T10:34:40.763Z,246.30
2024-01-26T10:35:40.748Z,238.40
2024-01-26T10:36:40.625Z,233.90
2024-01-26T10:37:40.605Z,231.30
2024-01-26T10:38:40.613Z,237.60
2024-01-26T10:39:40.628Z,243.50
2024-01-26T10:40:40.601Z,228.20
2024-01-26T10:41:40.655Z,239.50
2024-01-26T10:42:40.609Z,234.40
2024-01-26T10:43:40.514Z,229.30
2024-01-26T10:44:40.592Z,226.80
2024-01-26T10:45:40.550Z,220.80
2024-01-26T10:46:40.582Z,204.80
2024-01-26T10:47:40.735Z,207.40
2024-01-26T10:48:40.738Z,140.90
2024-01-26T10:49:40.565Z,81.90
2024-01-26T10:50:40.805Z,40.70
2024-01-26T10:51:40.554Z,32.70
2024-01-26T10:52:40.596Z,23.80
2024-01-26T10:53:40.479Z,21.70
2024-01-26T10:54:40.429Z,23.00
2024-01-26T10:55:40.429Z,22.30
2024-01-26T10:56:40.415Z,18.30
2024-01-26T10:57:40.403Z,21.40
2024-01-26T10:58:40.350Z,16.60
2024-01-26T10:59:40.453Z,17.70
2024-01-26T11:00:40.402Z,15.30
2024-01-26T11:01:40.412Z,15.50
2024-01-26T11:02:40.347Z,13.70
2024-01-26T11:03:40.421Z,16.40
2024-01-26T11:04:40.310Z,15.00
2024-01-26T11:05:40.353Z,14.70
2024-01-26T11:06:40.310Z,13.10
2024-01-26T11:07:40.314Z,17.20
2024-01-26T11:08:40.294Z,16.00
2024-01-26T11:09:40.316Z,19.40
2024-01-26T11:10:40.238Z,22.00
2024-01-26T11:11:40.348Z,19.40
2024-01-26T11:12:40.230Z,22.30
2024-01-26T11:13:40.245Z,22.80
2024-01-26T11:14:40.236Z,16.40
2024-01-26T11:15:40.215Z,17.70
2024-01-26T11:16:40.166Z,24.90
2024-01-26T11:17:40.245Z,23.90
2024-01-26T11:18:40.463Z,28.60
2024-01-26T11:19:40.301Z,21.90
2024-01-26T11:20:40.275Z,22.20
2024-01-26T11:21:40.137Z,22.80
2024-01-26T11:22:40.159Z,20.00
2024-01-26T11:23:40.206Z,17.70
2024-01-26T11:24:40.122Z,15.80
2024-01-26T11:25:40.088Z,17.00
2024-01-26T11:26:40.120Z,18.50
2024-01-26T11:27:40.078Z,21.00
2024-01-26T11:28:40.057Z,22.10
2024-01-26T11:29:40.061Z,20.50
2024-01-26T11:30:40.036Z,17.80
2024-01-26T11:31:40.042Z,16.80
2024-01-26T11:32:40.083Z,18.60
2024-01-26T11:33:40.151Z,16.40
2024-01-26T11:34:40.042Z,19.60
2024-01-26T11:35:40.019Z,16.00
2024-01-26T11:36:40.000Z,18.90
2024-01-26T11:37:40.010Z,15.90
2024-01-26T11:38:39.982Z,16.10
2024-01-26T11:39:39.946Z,17.60
2024-01-26T11:40:39.942Z,19.10
2024-01-26T11:41:39.964Z,23.90
2024-01-26T11:42:39.906Z,21.10
2024-01-26T11:43:39.898Z,21.20
2024-01-26T11:44:39.940Z,15.70
2024-01-26T11:45:39.880Z,17.70
2024-01-26T11:46:39.895Z,14.80
2024-01-26T11:47:40.032Z,13.60
2024-01-26T11:48:39.936Z,10.10
2024-01-26T11:49:39.924Z,10.00
2024-01-26T11:50:39.876Z,14.30
2024-01-26T11:51:39.840Z,12.20
2024-01-26T11:52:39.826Z,13.00
2024-01-26T11:53:39.818Z,12.00
2024-01-26T11:54:39.793Z,8.80
2024-01-26T11:55:39.810Z,6.50
2024-01-26T11:56:39.802Z,3.80
2024-01-26T11:57:39.784Z,2.10
2024-01-26T11:58:39.769Z,1.10
2024-01-26T11:59:39.779Z,0.80
2024-01-26T12:00:39.757Z,1.10
2024-01-26T12:01:39.707Z,1.00
2024-01-26T12:02:39.732Z,0.90
2024-01-26T12:03:39.695Z,0.90
2024-01-26T12:04:40.167Z,1.10
2024-01-26T12:05:39.840Z,1.70
2024-01-26T12:06:39.692Z,1.60
2024-01-26T12:07:39.664Z,1.20
2024-01-26T12:08:39.695Z,1.20
2024-01-26T12:09:39.658Z,1.30
2024-01-26T12:10:39.883Z,1.00
2024-01-26T12:11:39.631Z,0.90
2024-01-26T12:12:39.593Z,0.90
2024-01-26T12:13:39.593Z,0.80
2024-01-26T12:14:39.677Z,0.70
2024-01-26T12:15:39.566Z,0.30
2024-01-26T12:16:39.568Z,0.20
2024-01-26T12:17:39.645Z,0.40
2024-01-26T12:18:39.657Z,0.90
2024-01-26T12:19:39.685Z,0.30
2024-01-26T12:20:39.815Z,0.30
2024-01-26T12:21:39.511Z,1.40
2024-01-26T12:22:39.494Z,0.30
2024-01-26T12:23:39.520Z,0.40
2024-01-26T12:24:39.503Z,0.80
2024-01-26T12:25:39.473Z,0.20
2024-01-26T12:26:39.585Z,0.60
2024-01-26T12:27:39.476Z,0.50
2024-01-26T12:28:39.495Z,0.80
2024-01-26T12:29:39.512Z,0.20
2024-01-26T12:30:39.442Z,0.80
2024-01-26T12:31:39.433Z,0.50
2024-01-26T12:32:39.640Z,0.50
2024-01-26T12:33:39.561Z,0.30